Huntington Beach, California
Current Conditions -  °F | °C
As of 9:53 AM on Sunday 23 Nov 2014 (Local Time) from KSNA Reporting Station
Broken Clouds Broken Clouds  
Wind Chill: 25°   Ceiling: 28000
Heat Index: 25°   Visibility: 10mi
Dew Point: -6°   Wind: 16mph
Humidity: 12%   Direction: 10°N
Pressure: 30.12"   Gusts: 25mph
Location:  33.68°N, 118°W
Report Text: KSNA 231753Z 01014G22KT 10SM BKN280 25/M06 A3012 RMK AO2 PK WND 03026/1655 SLP197 T02501061 10261 20139 53008
Loading
Personal Weather Stations






























Interactive Weather Map New forecast layout! Learn more

10-Day Weather Forecast

Advertisements
Track Severe Weather on mobile